createdAt,value
2023-05-21T00:01:37.648Z,95.6
2023-05-21T00:05:43.940Z,95.4
2023-05-21T00:09:46.876Z,95.4
2023-05-21T00:11:48.270Z,95.5
2023-05-21T00:13:49.731Z,95.5
2023-05-21T00:19:57.461Z,95.9
2023-05-21T00:26:01.839Z,95.9
2023-05-21T00:28:03.334Z,95.9
2023-05-21T00:30:04.763Z,95.9
2023-05-21T00:32:09.537Z,96.3
2023-05-21T00:51:29.836Z,97.1
2023-05-21T00:55:32.788Z,97.3
2023-05-21T01:01:40.486Z,98
2023-05-21T01:07:44.825Z,98.7
2023-05-21T01:09:46.304Z,98.8
2023-05-21T01:11:47.773Z,98.8
2023-05-21T01:13:52.582Z,99
2023-05-21T01:15:54.053Z,99.2
2023-05-21T01:17:55.540Z,99.3
2023-05-21T01:19:56.999Z,99.4
2023-05-21T01:26:01.404Z,99.8
2023-05-21T01:28:06.123Z,99.8
2023-05-21T01:30:07.604Z,99.8
2023-05-21T01:32:09.099Z,99.9
2023-05-21T01:33:11.551Z,99.9
2023-05-21T01:37:14.393Z,99.9
2023-05-21T01:41:20.628Z,99.9
2023-05-21T01:43:22.102Z,99.9
2023-05-21T01:45:23.548Z,99.9
2023-05-21T01:47:25.038Z,99.9
2023-05-21T01:49:26.455Z,99.9
2023-05-21T01:53:29.390Z,99.9
2023-05-21T01:55:34.550Z,99.9
2023-05-21T01:57:35.609Z,99.9
2023-05-21T01:59:37.077Z,99.9
2023-05-21T02:01:38.581Z,99.9
2023-05-21T02:09:47.685Z,99.9
2023-05-21T02:13:50.605Z,99.9
2023-05-21T02:15:52.087Z,99.9
2023-05-21T02:26:02.652Z,99.9
2023-05-21T02:29:06.517Z,99.9
2023-05-21T02:31:07.988Z,99.9
2023-05-21T02:35:10.889Z,99.9
2023-05-21T02:37:15.613Z,99.9
2023-05-21T02:39:17.101Z,99.9
2023-05-21T02:41:18.580Z,99.9
2023-05-21T02:43:20.011Z,99.9
2023-05-21T02:45:21.468Z,99.9
2023-05-21T02:47:22.940Z,99.9
2023-05-21T02:49:24.384Z,99.9
2023-05-21T02:51:29.169Z,99.9
2023-05-21T02:53:30.608Z,99.9
2023-05-21T02:55:32.080Z,99.9
2023-05-21T02:57:33.529Z,99.9
2023-05-21T02:59:34.984Z,99.9
2023-05-21T03:01:36.556Z,99.9
2023-05-21T03:03:37.929Z,99.9
2023-05-21T03:05:42.690Z,99.9
2023-05-21T03:07:44.131Z,99.9
2023-05-21T03:09:45.645Z,99.9
2023-05-21T03:11:47.100Z,99.9
2023-05-21T03:15:50.016Z,99.9
2023-05-21T03:17:51.513Z,99.9
2023-05-21T03:19:56.222Z,99.9
2023-05-21T03:21:57.682Z,99.9
2023-05-21T03:28:23.842Z,99.9
2023-05-21T03:30:25.298Z,99.9
2023-05-21T03:34:31.526Z,99.9
2023-05-21T03:36:32.969Z,99.9
2023-05-21T03:38:36.501Z,99.9
2023-05-21T03:40:35.896Z,99.9
2023-05-21T03:44:38.823Z,99.9
2023-05-21T03:48:45.056Z,99.9
2023-05-21T03:54:49.436Z,99.9
2023-05-21T03:56:51.656Z,99.9
2023-05-21T03:58:52.363Z,99.9
2023-05-21T04:00:57.662Z,99.9
2023-05-21T04:02:59.165Z,99.9
2023-05-21T04:05:00.584Z,99.9
2023-05-21T04:07:02.061Z,99.9
2023-05-21T04:09:03.497Z,99.9
2023-05-21T04:11:04.967Z,99.9
2023-05-21T04:13:06.425Z,99.9
2023-05-21T04:15:11.213Z,99.9
2023-05-21T04:17:12.687Z,99.9
2023-05-21T04:19:14.108Z,99.9
2023-05-21T04:22:17.926Z,99.9
2023-05-21T04:26:20.815Z,99.9
2023-05-21T04:34:29.960Z,99.9
2023-05-21T04:36:31.412Z,99.9
2023-05-21T04:38:32.900Z,99.9
2023-05-21T04:42:39.063Z,99.9
2023-05-21T04:44:40.556Z,99.9
2023-05-21T04:46:42.133Z,99.9
2023-05-21T04:48:43.417Z,99.9
2023-05-21T04:54:47.852Z,99.9
2023-05-21T04:56:52.581Z,99.9
2023-05-21T04:58:54.070Z,99.9
2023-05-21T05:00:55.493Z,99.9
2023-05-21T05:06:59.883Z,99.9
2023-05-21T05:09:01.373Z,99.9
2023-05-21T05:13:07.567Z,99.9
2023-05-21T05:16:11.435Z,99.9
2023-05-21T05:18:12.855Z,99.9
2023-05-21T05:22:15.787Z,99.9
2023-05-21T05:34:27.864Z,99.9
2023-05-21T05:36:29.299Z,99.9
2023-05-21T05:38:34.039Z,99.9
2023-05-21T05:40:35.517Z,99.9
2023-05-21T05:42:36.986Z,99.9
2023-05-21T05:44:38.433Z,99.9
2023-05-21T05:50:42.797Z,99.9
2023-05-21T05:52:47.588Z,99.9
2023-05-21T05:54:49.066Z,99.9
2023-05-21T05:58:51.973Z,99.9
2023-05-21T06:02:55.045Z,99.9
2023-05-21T06:04:56.346Z,99.9
2023-05-21T06:12:06.372Z,99.9
2023-05-21T06:14:07.807Z,99.9
2023-05-21T06:16:09.348Z,99.9
2023-05-21T06:18:10.756Z,99.9
2023-05-21T06:20:15.630Z,99.9
2023-05-21T06:22:16.927Z,99.9
2023-05-21T06:36:31.921Z,99.9
2023-05-21T06:44:37.748Z,99.9
2023-05-21T06:54:48.316Z,99.9
2023-05-21T06:56:49.806Z,99.9
2023-05-21T06:58:51.272Z,99.9
2023-05-21T07:00:52.735Z,99.9
2023-05-21T07:02:57.595Z,99.9
2023-05-21T07:04:58.890Z,99.9
2023-05-21T07:07:00.373Z,99.9
2023-05-21T07:09:23.199Z,99.9
2023-05-21T07:11:24.696Z,99.9
2023-05-21T07:13:26.121Z,99.9
2023-05-21T07:15:30.849Z,99.9
2023-05-21T07:19:33.781Z,99.9
2023-05-21T07:23:36.623Z,99.9
2023-05-21T07:27:39.519Z,99.9
2023-05-21T07:31:45.730Z,99.9
2023-05-21T07:33:47.199Z,99.9
2023-05-21T07:35:48.615Z,99.9
2023-05-21T07:37:50.090Z,99.9
2023-05-21T07:39:51.527Z,99.9
2023-05-21T07:41:52.929Z,99.9
2023-05-21T07:43:57.698Z,99.9
2023-05-21T07:45:59.216Z,99.9
2023-05-21T07:48:00.592Z,99.9
2023-05-21T07:50:02.004Z,99.9
2023-05-21T07:52:03.427Z,99.9
2023-05-21T07:54:04.869Z,99.9
2023-05-21T07:56:06.293Z,99.9
2023-05-21T07:58:11.056Z,99.9
2023-05-21T08:03:16.527Z,99.9
2023-05-21T08:05:17.760Z,99.9
2023-05-21T08:07:19.165Z,99.9
2023-05-21T08:09:20.562Z,99.9
2023-05-21T08:11:25.276Z,99.9
2023-05-21T08:13:26.651Z,99.9
2023-05-21T08:17:29.529Z,99.8
2023-05-21T08:21:32.323Z,99.7
2023-05-21T08:27:39.771Z,98.9
2023-05-21T08:29:41.084Z,98.5
2023-05-21T08:31:42.529Z,98.5
2023-05-21T08:35:45.331Z,98.3
2023-05-21T08:37:46.766Z,98.1
2023-05-21T08:39:51.469Z,98
2023-05-21T08:41:52.789Z,97.6
2023-05-21T08:43:54.942Z,97.6
2023-05-21T08:45:55.499Z,97.3
2023-05-21T08:47:56.884Z,97.2
2023-05-21T08:49:58.229Z,96.9
2023-05-21T08:51:59.585Z,97
2023-05-21T08:54:04.235Z,97.9
2023-05-21T08:56:05.634Z,98.1
2023-05-21T08:58:07.064Z,98.3
2023-05-21T08:59:09.282Z,98.4
2023-05-21T09:03:12.110Z,97.5
2023-05-21T09:05:13.365Z,97.1
2023-05-21T09:07:17.881Z,97.2
2023-05-21T09:09:19.193Z,97.2
2023-05-21T09:11:20.560Z,97.2
2023-05-21T09:13:21.834Z,97
2023-05-21T09:21:30.346Z,95.2
2023-05-21T09:23:31.694Z,95.2
2023-05-21T09:37:44.268Z,95.2
2023-05-21T09:39:45.484Z,95
2023-05-21T09:49:55.038Z,93.6
2023-05-21T09:51:56.323Z,93.4
2023-05-21T09:53:57.586Z,93.1
2023-05-21T09:54:59.871Z,92.8
2023-05-21T09:57:01.215Z,92.5
2023-05-21T09:59:02.489Z,92.3
2023-05-21T10:07:10.692Z,91.8
2023-05-21T10:11:13.320Z,92
2023-05-21T10:13:14.564Z,92.2
2023-05-21T10:15:15.843Z,92.3
2023-05-21T10:17:20.542Z,92.6
2023-05-21T10:25:25.357Z,92.9
2023-05-21T10:27:26.597Z,93
2023-05-21T10:29:27.841Z,92.8
2023-05-21T10:31:32.288Z,92.6
2023-05-21T10:33:33.537Z,92.3
2023-05-21T10:35:35.177Z,92.3
2023-05-21T10:37:35.984Z,92
2023-05-21T10:49:46.707Z,92
2023-05-21T11:02:12.696Z,91.6
2023-05-21T11:04:13.864Z,91.7
2023-05-21T11:10:17.772Z,90.9
2023-05-21T11:12:22.202Z,91
2023-05-21T11:14:23.425Z,91.1
2023-05-21T11:16:24.701Z,91.9
2023-05-21T11:18:25.851Z,92.3
2023-05-21T11:20:27.079Z,92.2
2023-05-21T11:22:28.263Z,92.1
2023-05-21T11:24:29.476Z,92.2
2023-05-21T11:26:33.952Z,92.1
2023-05-21T11:28:35.157Z,92.3
2023-05-21T11:30:36.946Z,92.7
2023-05-21T11:32:37.849Z,92.9
2023-05-21T11:34:38.986Z,92.7
2023-05-21T11:36:40.273Z,92.6
2023-05-21T11:38:41.489Z,92.6
2023-05-21T11:40:45.970Z,92
2023-05-21T11:42:47.198Z,91.8
2023-05-21T11:44:48.438Z,91.7
2023-05-21T11:47:51.901Z,91.2
2023-05-21T11:49:53.109Z,91.1
2023-05-21T11:51:54.392Z,90.9
2023-05-21T11:53:58.901Z,90.8
2023-05-21T11:56:00.172Z,90.9
2023-05-21T11:58:01.375Z,91
2023-05-21T12:00:03.366Z,91
2023-05-21T12:06:07.099Z,91.3
2023-05-21T12:08:11.513Z,91.4
2023-05-21T12:10:12.745Z,91.5
2023-05-21T12:12:13.950Z,91.6
2023-05-21T12:14:15.186Z,91.7
2023-05-21T12:18:17.582Z,91.7
2023-05-21T12:20:20.353Z,91.4
2023-05-21T12:41:41.124Z,90.1
2023-05-21T12:43:42.382Z,90.1
2023-05-21T12:45:43.665Z,90
2023-05-21T12:47:44.798Z,90
2023-05-21T12:49:49.273Z,90.4
2023-05-21T12:55:52.871Z,91
2023-05-21T12:57:54.104Z,91
2023-05-21T12:59:55.370Z,90.8
2023-05-21T13:04:01.004Z,90.1
2023-05-21T13:06:02.172Z,90.3
2023-05-21T13:08:03.383Z,90.4
2023-05-21T13:12:05.801Z,90.4
2023-05-21T13:14:07.002Z,90.1
2023-05-21T13:16:08.231Z,89.6
2023-05-21T13:20:13.821Z,89.2
2023-05-21T13:24:16.263Z,89.5
2023-05-21T13:26:17.416Z,90.2
2023-05-21T13:30:19.842Z,90.6
2023-05-21T13:32:24.340Z,91.1
2023-05-21T13:34:25.498Z,91.3
2023-05-21T13:36:26.688Z,91.2
2023-05-21T13:37:28.881Z,91.1
2023-05-21T14:01:49.836Z,85.8
2023-05-21T14:07:53.255Z,84.7
2023-05-21T14:09:54.416Z,84.8
2023-05-21T14:11:55.563Z,84.5
2023-05-21T14:13:59.994Z,83
2023-05-21T14:16:01.190Z,82.4
2023-05-21T14:18:02.305Z,82.2
2023-05-21T14:32:13.661Z,83.2
2023-05-21T14:48:40.971Z,86.3
2023-05-21T14:50:42.145Z,85.9
2023-05-21T14:54:47.761Z,85.5
2023-05-21T15:04:53.513Z,83.7
2023-05-21T15:11:00.227Z,84.8
2023-05-21T15:13:01.462Z,85.1
2023-05-21T15:15:02.587Z,86.1
2023-05-21T15:17:03.756Z,86.3
2023-05-21T15:19:04.971Z,85.8
2023-05-21T15:21:06.090Z,85.2
2023-05-21T15:25:11.643Z,86.7
2023-05-21T15:27:12.783Z,86.9
2023-05-21T15:28:15.007Z,87.1
2023-05-21T15:30:16.176Z,86.9
2023-05-21T15:32:17.322Z,85.4
2023-05-21T15:34:18.525Z,85.8
2023-05-21T15:36:22.899Z,85.6
2023-05-21T15:38:24.047Z,85.6
2023-05-21T15:40:26.869Z,86.1
2023-05-21T15:42:26.381Z,86
2023-05-21T15:44:27.562Z,85.8
2023-05-21T15:46:28.704Z,86
2023-05-21T15:48:29.871Z,86.1
2023-05-21T15:52:35.404Z,85.6
2023-05-21T15:56:37.741Z,85
2023-05-21T15:58:38.896Z,84.9
2023-05-21T16:00:40.086Z,84.8
2023-05-21T16:02:41.237Z,84.5
2023-05-21T16:04:45.646Z,85
2023-05-21T16:06:46.805Z,84.8
2023-05-21T16:08:47.981Z,84.5
2023-05-21T16:10:49.139Z,83.2
2023-05-21T16:12:50.306Z,82.1
2023-05-21T16:14:51.488Z,81.8
2023-05-21T16:16:52.704Z,81.2
2023-05-21T16:18:57.108Z,80.4
2023-05-21T16:20:58.212Z,79.7
2023-05-21T16:26:02.761Z,78
2023-05-21T16:28:03.895Z,77.6
2023-05-21T16:30:05.093Z,77.2
2023-05-21T16:36:11.788Z,76.7
2023-05-21T16:42:15.255Z,77.7
2023-05-21T16:44:16.403Z,78.4
2023-05-21T16:52:24.273Z,76.2
2023-05-21T16:56:26.563Z,75.6
2023-05-21T16:58:27.750Z,75.7
2023-05-21T17:00:32.109Z,76.1
2023-05-21T17:02:33.420Z,76.2
2023-05-21T17:14:43.413Z,77.1
2023-05-21T17:16:44.594Z,77.3
2023-05-21T17:19:47.909Z,78.4
2023-05-21T17:23:50.234Z,78.7
2023-05-21T17:25:51.337Z,78.8
2023-05-21T17:27:55.757Z,79.2
2023-05-21T17:29:56.905Z,79
2023-05-21T17:31:58.083Z,79
2023-05-21T17:33:59.201Z,78.9
2023-05-21T17:36:00.379Z,78.9
2023-05-21T17:38:01.492Z,78.9
2023-05-21T17:40:02.652Z,79.1
2023-05-21T17:42:07.044Z,79.2
2023-05-21T17:44:08.187Z,79.6
2023-05-21T17:46:09.733Z,79.8
2023-05-21T17:48:11.309Z,80
2023-05-21T17:50:12.045Z,80.1
2023-05-21T17:52:13.208Z,80.3
2023-05-21T17:58:20.007Z,80.5
2023-05-21T18:02:22.248Z,80.5
2023-05-21T18:06:24.627Z,81
2023-05-21T18:08:25.776Z,81.3
2023-05-21T18:10:31.766Z,81.9
2023-05-21T18:12:32.961Z,82.1
2023-05-21T18:14:34.058Z,82.1
2023-05-21T18:16:56.547Z,83.4
2023-05-21T18:18:57.674Z,83.9
2023-05-21T18:20:58.887Z,84.5
2023-05-21T18:23:03.343Z,84.9
2023-05-21T18:25:04.482Z,85
2023-05-21T18:27:05.686Z,85.2
2023-05-21T18:29:06.870Z,85.5
2023-05-21T18:31:08.047Z,86
2023-05-21T18:33:09.278Z,86.6
2023-05-21T18:35:11.588Z,87
2023-05-21T18:37:15.006Z,88.4
2023-05-21T18:39:16.349Z,88.8
2023-05-21T18:43:18.742Z,89.6
2023-05-21T18:45:19.972Z,90
2023-05-21T18:47:21.148Z,90.2
2023-05-21T18:49:22.499Z,90.6
2023-05-21T18:51:26.869Z,91.3
2023-05-21T19:10:43.670Z,95
2023-05-21T19:14:46.263Z,95.5
2023-05-21T19:18:52.145Z,96.5
2023-05-21T19:24:55.916Z,96.9
2023-05-21T19:28:58.458Z,97.1
2023-05-21T19:30:59.828Z,97.3
2023-05-21T19:33:04.465Z,97.8
2023-05-21T19:35:05.699Z,98.1
2023-05-21T19:45:12.505Z,99.7
2023-05-21T19:47:17.093Z,99.9
2023-05-21T19:53:21.053Z,99.9
2023-05-21T19:55:22.469Z,99.9
2023-05-21T19:57:23.840Z,99.9
2023-05-21T19:59:25.276Z,99.9
2023-05-21T20:01:30.052Z,99.9
2023-05-21T20:08:36.456Z,99.9
2023-05-21T20:12:39.172Z,99.9
2023-05-21T20:14:43.802Z,99.9
2023-05-21T20:16:45.172Z,99.9
2023-05-21T20:26:52.130Z,99.9
2023-05-21T20:28:56.892Z,99.9
2023-05-21T20:30:58.319Z,99.9
2023-05-21T20:32:59.741Z,99.9
2023-05-21T20:37:02.571Z,99.9
2023-05-21T20:39:03.970Z,99.9
2023-05-21T20:41:05.421Z,99.9
2023-05-21T20:43:10.151Z,99.9
2023-05-21T20:45:11.570Z,99.9
2023-05-21T20:51:15.879Z,99.9
2023-05-21T20:55:18.714Z,99.9
2023-05-21T20:57:23.452Z,99.9
2023-05-21T20:59:24.882Z,99.9
2023-05-21T21:01:26.323Z,99.9
2023-05-21T21:02:28.734Z,99.9
2023-05-21T21:04:30.113Z,99.9
2023-05-21T21:06:31.533Z,99.9
2023-05-21T21:08:32.948Z,99.9
2023-05-21T21:14:40.555Z,99.9
2023-05-21T21:16:41.998Z,99.9
2023-05-21T21:18:43.419Z,99.9
2023-05-21T21:20:44.862Z,99.9
2023-05-21T21:24:51.030Z,99.9
2023-05-21T21:26:52.468Z,99.9
2023-05-21T21:30:55.339Z,99.9
2023-05-21T21:32:56.784Z,99.9
2023-05-21T21:36:59.633Z,99.9
2023-05-21T21:59:43.437Z,99.9
2023-05-21T22:01:44.899Z,99.9
2023-05-21T22:03:46.266Z,99.9
2023-05-21T22:05:50.926Z,99.9
2023-05-21T22:07:52.353Z,99.9
2023-05-21T22:09:53.777Z,99.9
2023-05-21T22:15:58.064Z,99.9
2023-05-21T22:20:04.235Z,99.9
2023-05-21T22:22:05.662Z,99.9
2023-05-21T22:28:09.925Z,99.9
2023-05-21T22:40:21.814Z,99.9
2023-05-21T22:42:23.255Z,99.9
2023-05-21T22:44:24.655Z,99.9
2023-05-21T22:46:26.115Z,99.9
2023-05-21T22:48:30.870Z,99.9
2023-05-21T22:50:32.244Z,99.9
2023-05-21T22:52:33.720Z,99.9
2023-05-21T22:53:36.074Z,99.9
2023-05-21T22:55:37.493Z,99.9
2023-05-21T23:09:50.752Z,99.9
2023-05-21T23:26:05.518Z,99.9
2023-05-21T23:28:06.919Z,99.9
2023-05-21T23:30:11.684Z,99.9
2023-05-21T23:32:13.100Z,99.9
2023-05-21T23:34:14.549Z,99.9
2023-05-21T23:36:15.927Z,99.9
2023-05-21T23:38:17.377Z,99.9
2023-05-21T23:40:18.795Z,99.9
2023-05-21T23:42:20.241Z,99.9
2023-05-21T23:44:24.978Z,99.9
2023-05-21T23:46:26.404Z,99.9
2023-05-21T23:48:27.884Z,99.9
2023-05-21T23:55:34.488Z,99.9
